Disclaimer

Please do not use the information listed here in-flight or in-navigation, as they are not provided to us by the airports but are provided by volunteers, so they might be outdated.

Search


Regions


Airport information page

Radio informations:
Tower (TWR) - 124.3 MHz
Approach (APP) - 123.9 MHz
A/G VOICE RDO - 3432 MHz

Airport informations:
Latitude: 11° 53' 41.46" N
Longitude: 015° 39' 13.25" W
Elevation: 129 feet - 39 meters
Operating hours: Remarks
Operating agency: Military-civil joint use airport
Timezone: UTC 0
Fuel: N/A

Runway information:
03/21 - 10499 x 148 feet< - >3200 x 45 meters

Recent METARs:
GGOV 160200Z 04012KT 8000 NSC 24/03 Q1015 NOSIG
GGOV 160300Z 04012KT 8000 NSC 23/03 Q1014 NOSIG
GGOV 160300Z 04012KT 8000 NSC 23/03 Q1014 NOSIG

Airport on the map: